createdAt,value
2022-11-20T00:01:06.421Z,19.65
2022-11-20T00:03:33.050Z,19.30
2022-11-20T00:06:07.627Z,20.50
2022-11-20T00:08:34.786Z,26.17
2022-11-20T00:11:14.223Z,22.08
2022-11-20T00:13:42.358Z,13.32
2022-11-20T00:16:12.013Z,20.67
2022-11-20T00:18:38.793Z,25.73
2022-11-20T00:21:15.350Z,16.55
2022-11-20T00:23:42.855Z,22.35
2022-11-20T00:26:15.864Z,18.33
2022-11-20T00:28:43.798Z,24.13
2022-11-20T00:31:15.613Z,19.83
2022-11-20T00:33:43.676Z,21.45
2022-11-20T00:36:21.792Z,19.00
2022-11-20T00:38:52.151Z,18.58
2022-11-20T00:41:18.915Z,25.33
2022-11-20T00:43:45.562Z,20.40
2022-11-20T00:46:16.874Z,25.88
2022-11-20T00:48:44.383Z,24.85
2022-11-20T00:51:12.964Z,22.55
2022-11-20T00:53:39.683Z,17.88
2022-11-20T00:56:09.259Z,15.48
2022-11-20T00:58:37.989Z,26.90
2022-11-20T01:01:17.656Z,24.73
2022-11-20T01:03:46.223Z,19.17
2022-11-20T01:06:14.263Z,17.88
2022-11-20T01:08:41.250Z,20.10
2022-11-20T01:11:11.081Z,17.85
2022-11-20T01:13:38.124Z,20.08
2022-11-20T01:16:11.892Z,22.45
2022-11-20T01:18:40.586Z,17.20
2022-11-20T01:21:12.651Z,21.23
2022-11-20T01:23:42.518Z,16.55
2022-11-20T01:26:12.070Z,17.05
2022-11-20T01:28:39.340Z,17.42
2022-11-20T01:31:19.992Z,17.25
2022-11-20T01:33:48.019Z,16.27
2022-11-20T01:36:16.071Z,18.20
2022-11-20T01:38:43.479Z,16.77
2022-11-20T01:41:11.149Z,18.23
2022-11-20T01:43:38.094Z,19.50
2022-11-20T01:46:17.515Z,18.80
2022-11-20T01:49:04.378Z,18.40
2022-11-20T01:51:49.761Z,19.15
2022-11-20T01:54:40.512Z,17.40
2022-11-20T01:57:09.257Z,13.82
2022-11-20T01:59:36.774Z,18.25
2022-11-20T02:02:03.412Z,21.67
2022-11-20T02:04:30.090Z,15.10
2022-11-20T02:07:01.683Z,20.80
2022-11-20T02:09:29.234Z,20.65
2022-11-20T02:11:56.587Z,21.23
2022-11-20T02:14:23.596Z,20.48
2022-11-20T02:16:50.798Z,23.05
2022-11-20T02:19:37.630Z,15.63
2022-11-20T02:22:15.977Z,21.58
2022-11-20T02:24:43.059Z,21.33
2022-11-20T02:27:12.884Z,24.10
2022-11-20T02:29:49.315Z,21.08
2022-11-20T02:32:28.850Z,21.30
2022-11-20T02:34:56.017Z,30.85
2022-11-20T02:37:22.971Z,23.73
2022-11-20T02:39:51.474Z,24.80
2022-11-20T02:42:18.958Z,22.27
2022-11-20T02:44:45.626Z,19.23
2022-11-20T02:47:12.331Z,18.35
2022-11-20T02:49:39.015Z,17.38
2022-11-20T02:52:05.651Z,20.10
2022-11-20T02:54:32.334Z,20.65
2022-11-20T02:56:59.106Z,15.10
2022-11-20T02:59:25.769Z,28.55
2022-11-20T03:01:52.385Z,19.35
2022-11-20T03:04:19.061Z,19.23
2022-11-20T03:06:45.687Z,22.42
2022-11-20T03:09:12.695Z,18.63
2022-11-20T03:11:39.359Z,14.63
2022-11-20T03:14:06.512Z,22.63
2022-11-20T03:16:33.723Z,24.90
2022-11-20T03:19:00.823Z,21.70
2022-11-20T03:21:27.939Z,15.38
2022-11-20T03:23:55.254Z,16.40
2022-11-20T03:26:25.303Z,21.40
2022-11-20T03:28:57.493Z,21.65
2022-11-20T03:31:26.920Z,25.23
2022-11-20T03:33:53.805Z,26.58
2022-11-20T03:36:21.521Z,21.35
2022-11-20T03:38:49.002Z,15.73
2022-11-20T03:41:19.328Z,20.45
2022-11-20T03:43:54.036Z,22.38
2022-11-20T03:46:21.067Z,20.15
2022-11-20T03:48:51.629Z,16.98
2022-11-20T03:51:24.933Z,17.50
2022-11-20T03:53:53.267Z,20.20
2022-11-20T03:56:22.257Z,19.33
2022-11-20T04:01:18.043Z,16.52
2022-11-20T04:03:45.390Z,13.93
2022-11-20T04:06:14.327Z,18.08
2022-11-20T04:11:17.302Z,21.77
2022-11-20T04:13:47.752Z,17.75
2022-11-20T04:16:15.138Z,18.73
2022-11-20T04:18:41.781Z,18.80
2022-11-20T04:21:08.720Z,16.17
2022-11-20T04:23:35.459Z,19.17
2022-11-20T04:26:12.609Z,20.63
2022-11-20T04:28:39.710Z,17.15
2022-11-20T04:31:11.776Z,19.35
2022-11-20T04:33:38.828Z,18.30
2022-11-20T04:36:26.410Z,22.20
2022-11-20T04:39:06.248Z,16.50
2022-11-20T04:41:37.380Z,11.60
2022-11-20T04:44:06.082Z,16.13
2022-11-20T04:46:35.894Z,15.10
2022-11-20T04:49:02.578Z,19.45
2022-11-20T04:51:29.446Z,12.85
2022-11-20T04:53:56.353Z,26.55
2022-11-20T04:56:23.165Z,21.63
2022-11-20T04:58:49.913Z,18.65
2022-11-20T05:01:18.831Z,16.65
2022-11-20T05:06:14.286Z,21.73
2022-11-20T05:08:41.631Z,14.98
2022-11-20T05:11:10.758Z,18.17
2022-11-20T05:13:37.702Z,16.80
2022-11-20T05:16:12.207Z,19.05
2022-11-20T05:18:39.511Z,17.50
2022-11-20T05:21:07.172Z,22.98
2022-11-20T05:23:34.524Z,17.17
2022-11-20T05:26:01.584Z,16.38
2022-11-20T05:28:29.362Z,17.92
2022-11-20T05:30:56.134Z,19.85
2022-11-20T05:33:23.208Z,20.83
2022-11-20T05:35:49.897Z,17.63
2022-11-20T05:38:16.881Z,18.38
2022-11-20T05:40:43.534Z,16.00
2022-11-20T05:43:10.279Z,17.17
2022-11-20T05:45:36.969Z,20.90
2022-11-20T05:48:03.871Z,18.08
2022-11-20T05:50:30.831Z,20.13
2022-11-20T05:53:00.547Z,19.52
2022-11-20T05:55:28.113Z,23.30
2022-11-20T05:57:55.973Z,25.35
2022-11-20T06:00:23.236Z,21.20
2022-11-20T06:02:50.008Z,17.38
2022-11-20T06:05:16.825Z,21.98
2022-11-20T06:07:43.585Z,20.00
2022-11-20T06:10:11.139Z,22.00
2022-11-20T06:12:37.736Z,17.02
2022-11-20T06:15:05.863Z,19.55
2022-11-20T06:17:32.626Z,18.67
2022-11-20T06:19:59.348Z,21.15
2022-11-20T06:22:25.984Z,21.70
2022-11-20T06:24:52.611Z,17.55
2022-11-20T06:27:19.246Z,19.15
2022-11-20T06:29:45.975Z,22.83
2022-11-20T06:32:12.633Z,20.63
2022-11-20T06:34:39.252Z,20.40
2022-11-20T06:37:06.001Z,22.52
2022-11-20T06:39:32.633Z,19.58
2022-11-20T06:41:59.529Z,24.23
2022-11-20T06:44:26.473Z,15.40
2022-11-20T06:46:53.197Z,19.67
2022-11-20T06:49:20.078Z,21.52
2022-11-20T06:51:47.062Z,17.52
2022-11-20T06:54:13.722Z,23.52
2022-11-20T06:56:40.381Z,21.42
2022-11-20T06:59:08.036Z,22.77
2022-11-20T07:01:36.004Z,19.83
2022-11-20T07:04:04.061Z,20.27
2022-11-20T07:06:30.950Z,17.70
2022-11-20T07:08:58.040Z,27.95
2022-11-20T07:11:25.045Z,19.95
2022-11-20T07:13:51.743Z,17.30
2022-11-20T07:16:18.367Z,24.27
2022-11-20T07:18:50.272Z,21.95
2022-11-20T07:21:17.560Z,18.08
2022-11-20T07:23:44.280Z,20.17
2022-11-20T07:26:11.698Z,20.33
2022-11-20T07:28:38.838Z,19.05
2022-11-20T07:31:07.655Z,19.58
2022-11-20T07:36:01.478Z,21.83
2022-11-20T07:38:28.553Z,25.10
2022-11-20T07:40:57.001Z,25.48
2022-11-20T07:43:23.636Z,22.77
2022-11-20T07:45:50.287Z,19.67
2022-11-20T07:48:17.014Z,24.02
2022-11-20T07:50:43.698Z,22.92
2022-11-20T07:53:10.338Z,22.25
2022-11-20T07:55:37.160Z,23.65
2022-11-20T07:58:03.796Z,25.85
2022-11-20T08:00:30.516Z,21.38
2022-11-20T08:02:57.291Z,22.25
2022-11-20T08:05:24.004Z,19.13
2022-11-20T08:07:50.666Z,26.42
2022-11-20T08:10:17.798Z,20.80
2022-11-20T08:13:07.706Z,29.83
2022-11-20T08:15:35.003Z,24.48
2022-11-20T08:18:29.917Z,23.17
2022-11-20T08:20:53.155Z,21.13
2022-11-20T08:23:19.886Z,20.65
2022-11-20T08:25:50.540Z,27.65
2022-11-20T08:28:21.295Z,21.67
2022-11-20T08:30:49.165Z,21.33
2022-11-20T08:33:15.804Z,33.05
2022-11-20T08:35:43.592Z,28.65
2022-11-20T08:38:10.445Z,26.67
2022-11-20T08:40:37.160Z,28.27
2022-11-20T08:43:03.909Z,34.30
2022-11-20T08:45:34.177Z,35.67
2022-11-20T08:48:02.878Z,23.20
2022-11-20T08:50:30.267Z,21.80
2022-11-20T08:52:56.920Z,21.45
2022-11-20T08:55:23.559Z,22.67
2022-11-20T08:57:51.142Z,21.83
2022-11-20T09:00:18.239Z,22.70
2022-11-20T09:02:44.887Z,31.38
2022-11-20T09:05:11.670Z,24.67
2022-11-20T09:07:38.446Z,29.98
2022-11-20T09:12:53.093Z,25.45
2022-11-20T09:15:20.218Z,22.75
2022-11-20T09:17:57.167Z,24.77
2022-11-20T09:20:24.039Z,25.90
2022-11-20T09:22:50.763Z,23.83
2022-11-20T09:25:17.922Z,21.67
2022-11-20T09:27:46.807Z,28.38
2022-11-20T09:30:15.058Z,26.38
2022-11-20T09:32:42.008Z,26.80
2022-11-20T09:35:09.344Z,24.52
2022-11-20T09:37:36.070Z,25.73
2022-11-20T09:40:03.058Z,25.48
2022-11-20T09:42:45.044Z,25.35
2022-11-20T09:45:17.455Z,23.05
2022-11-20T09:48:16.275Z,21.95
2022-11-20T09:50:58.116Z,21.67
2022-11-20T09:53:53.256Z,28.35
2022-11-20T09:56:22.875Z,29.38
2022-11-20T09:58:53.862Z,20.42
2022-11-20T10:01:23.058Z,25.67
2022-11-20T10:03:54.837Z,21.63
2022-11-20T10:06:34.745Z,19.63
2022-11-20T10:09:08.026Z,20.33
2022-11-20T10:12:01.099Z,30.40
2022-11-20T10:14:49.502Z,21.65
2022-11-20T10:17:53.523Z,22.42
2022-11-20T10:20:47.641Z,19.40
2022-11-20T10:23:26.288Z,24.17
2022-11-20T10:26:02.668Z,29.48
2022-11-20T10:28:40.249Z,29.50
2022-11-20T10:31:13.643Z,24.80
2022-11-20T10:34:05.408Z,27.42
2022-11-20T10:36:44.471Z,18.95
2022-11-20T10:39:35.319Z,27.00
2022-11-20T10:42:02.030Z,21.48
2022-11-20T10:44:50.241Z,26.35
2022-11-20T10:47:20.594Z,26.70
2022-11-20T10:49:50.474Z,22.27
2022-11-20T10:52:52.367Z,27.92
2022-11-20T10:55:29.463Z,23.08
2022-11-20T10:58:02.899Z,37.67
2022-11-20T11:00:32.431Z,25.45
2022-11-20T11:03:03.967Z,28.95
2022-11-20T11:05:35.816Z,31.83
2022-11-20T11:08:02.699Z,23.45
2022-11-20T11:10:32.976Z,24.60
2022-11-20T11:12:59.617Z,23.42
2022-11-20T11:15:30.651Z,29.15
2022-11-20T11:17:57.531Z,23.33
2022-11-20T11:20:26.334Z,24.30
2022-11-20T11:22:56.238Z,25.48
2022-11-20T11:25:30.534Z,26.27
2022-11-20T11:27:59.710Z,31.73
2022-11-20T11:30:27.633Z,35.47
2022-11-20T11:33:07.792Z,48.78
2022-11-20T11:35:34.966Z,40.03
2022-11-20T11:38:08.319Z,32.95
2022-11-20T11:40:36.832Z,29.17
2022-11-20T11:43:37.935Z,26.38
2022-11-20T11:46:10.229Z,28.50
2022-11-20T11:48:36.867Z,22.77
2022-11-20T11:51:03.558Z,36.72
2022-11-20T11:53:30.395Z,31.52
2022-11-20T11:56:04.178Z,31.90
2022-11-20T11:58:45.165Z,32.53
2022-11-20T12:01:30.250Z,29.52
2022-11-20T12:04:03.840Z,23.15
2022-11-20T12:06:32.600Z,33.88
2022-11-20T12:09:11.663Z,32.40
2022-11-20T12:11:48.346Z,30.98
2022-11-20T12:14:39.975Z,25.67
2022-11-20T12:17:08.563Z,31.42
2022-11-20T12:19:35.855Z,29.10
2022-11-20T12:22:22.470Z,37.83
2022-11-20T12:25:13.988Z,32.33
2022-11-20T12:27:43.484Z,28.85
2022-11-20T12:30:13.984Z,32.30
2022-11-20T12:32:49.515Z,33.30
2022-11-20T12:35:34.626Z,30.05
2022-11-20T12:38:32.182Z,32.75
2022-11-20T12:41:43.110Z,36.00
2022-11-20T12:44:56.321Z,44.38
2022-11-20T12:47:29.023Z,32.38
2022-11-20T12:50:14.571Z,33.05
2022-11-20T12:53:07.261Z,30.58
2022-11-20T12:55:55.708Z,34.75
2022-11-20T12:58:32.463Z,29.63
2022-11-20T13:01:41.552Z,38.50
2022-11-20T13:04:35.242Z,33.25
2022-11-20T13:07:10.531Z,39.03
2022-11-20T13:09:42.298Z,29.45
2022-11-20T13:12:30.431Z,34.03
2022-11-20T13:15:24.981Z,34.22
2022-11-20T13:18:02.309Z,32.85
2022-11-20T13:20:31.043Z,30.17
2022-11-20T13:22:58.398Z,43.35
2022-11-20T13:25:35.946Z,30.35
2022-11-20T13:28:11.949Z,37.47
2022-11-20T13:30:50.465Z,33.05
2022-11-20T13:33:32.516Z,43.92
2022-11-20T13:36:04.481Z,37.00
2022-11-20T13:38:45.227Z,37.30
2022-11-20T13:41:30.151Z,45.42
2022-11-20T13:44:09.041Z,38.80
2022-11-20T13:46:44.989Z,36.72
2022-11-20T13:49:18.957Z,42.42
2022-11-20T13:51:48.022Z,39.92
2022-11-20T13:54:20.932Z,37.55
2022-11-20T13:57:11.010Z,48.15
2022-11-20T14:00:04.848Z,36.88
2022-11-20T14:02:31.710Z,35.20
2022-11-20T14:05:00.790Z,31.55
2022-11-20T14:07:37.624Z,37.88
2022-11-20T14:10:04.706Z,34.80
2022-11-20T14:12:33.715Z,40.40
2022-11-20T14:15:01.136Z,37.42
2022-11-20T14:17:35.659Z,46.65
2022-11-20T14:20:08.096Z,41.20
2022-11-20T14:22:34.807Z,47.58
2022-11-20T14:25:15.286Z,37.58
2022-11-20T14:27:44.000Z,37.78
2022-11-20T14:30:16.280Z,40.03
2022-11-20T14:32:44.332Z,43.30
2022-11-20T14:35:16.234Z,43.70
2022-11-20T14:37:42.942Z,37.10
2022-11-20T14:40:27.637Z,36.38
2022-11-20T14:42:54.522Z,56.25
2022-11-20T14:45:21.446Z,30.17
2022-11-20T14:47:48.335Z,46.50
2022-11-20T14:50:19.584Z,54.17
2022-11-20T14:52:54.638Z,46.35
2022-11-20T14:58:05.973Z,48.20
2022-11-20T15:00:34.359Z,50.97
2022-11-20T15:03:01.050Z,50.92
2022-11-20T15:05:50.486Z,54.45
2022-11-20T15:08:17.962Z,72.88
2022-11-20T15:10:52.056Z,46.80
2022-11-20T15:13:33.148Z,37.95
2022-11-20T15:16:01.988Z,52.28
2022-11-20T15:18:42.524Z,48.85
2022-11-20T15:21:20.051Z,45.88
2022-11-20T15:23:46.832Z,43.25
2022-11-20T15:26:19.909Z,51.58
2022-11-20T15:28:48.821Z,44.03
2022-11-20T15:31:21.866Z,44.40
2022-11-20T15:33:48.802Z,42.00
2022-11-20T15:36:15.605Z,56.97
2022-11-20T15:38:42.573Z,39.83
2022-11-20T15:41:09.718Z,53.45
2022-11-20T15:43:36.424Z,46.90
2022-11-20T15:46:14.849Z,48.72
2022-11-20T15:48:47.919Z,53.72
2022-11-20T15:51:32.627Z,50.53
2022-11-20T15:53:59.521Z,58.40
2022-11-20T15:56:26.722Z,44.20
2022-11-20T15:58:53.418Z,41.50
2022-11-20T16:01:22.907Z,60.80
2022-11-20T16:03:49.739Z,48.10
2022-11-20T16:06:17.330Z,46.42
2022-11-20T16:08:44.138Z,54.63
2022-11-20T16:11:15.107Z,52.88
2022-11-20T16:14:01.398Z,45.10
2022-11-20T16:16:33.904Z,51.55
2022-11-20T16:19:01.246Z,48.35
2022-11-20T16:21:32.227Z,58.45
2022-11-20T16:24:00.384Z,40.85
2022-11-20T16:26:27.602Z,50.63
2022-11-20T16:28:55.312Z,51.88
2022-11-20T16:31:22.609Z,57.47
2022-11-20T16:33:57.218Z,48.80
2022-11-20T16:36:25.733Z,44.75
2022-11-20T16:38:56.787Z,51.22
2022-11-20T16:41:24.305Z,49.20
2022-11-20T16:43:53.377Z,60.15
2022-11-20T16:46:21.711Z,47.22
2022-11-20T16:48:57.017Z,54.83
2022-11-20T16:51:24.383Z,50.50
2022-11-20T16:53:51.458Z,59.75
2022-11-20T16:56:20.361Z,55.38
2022-11-20T16:58:48.602Z,51.03
2022-11-20T17:01:18.104Z,58.00
2022-11-20T17:03:46.451Z,53.00
2022-11-20T17:06:19.602Z,53.58
2022-11-20T17:08:47.180Z,52.65
2022-11-20T17:11:19.333Z,57.28
2022-11-20T17:13:46.611Z,76.93
2022-11-20T17:16:16.255Z,56.00
2022-11-20T17:18:44.089Z,52.28
2022-11-20T17:21:11.615Z,55.00
2022-11-20T17:23:40.293Z,60.45
2022-11-20T17:26:18.358Z,49.60
2022-11-20T17:28:46.672Z,60.05
2022-11-20T17:31:17.534Z,54.10
2022-11-20T17:33:46.221Z,55.38
2022-11-20T17:36:15.578Z,52.17
2022-11-20T17:38:42.790Z,69.90
2022-11-20T17:41:15.123Z,64.72
2022-11-20T17:43:42.936Z,42.38
2022-11-20T17:46:12.178Z,52.78
2022-11-20T17:48:42.450Z,46.85
2022-11-20T17:51:12.220Z,53.42
2022-11-20T17:53:42.240Z,61.55
2022-11-20T17:56:27.782Z,47.42
2022-11-20T17:58:54.658Z,27.05
2022-11-20T18:01:21.787Z,25.42
2022-11-20T18:03:48.953Z,35.15
2022-11-20T18:06:16.414Z,23.55
2022-11-20T18:08:43.534Z,30.27
2022-11-20T18:11:21.398Z,19.80
2022-11-20T18:14:08.263Z,18.20
2022-11-20T18:16:37.663Z,18.48
2022-11-20T18:19:04.558Z,18.10
2022-11-20T18:21:31.773Z,13.75
2022-11-20T18:23:58.731Z,14.60
2022-11-20T18:26:25.825Z,12.52
2022-11-20T18:28:53.380Z,21.25
2022-11-20T18:31:21.518Z,14.05
2022-11-20T18:33:48.274Z,14.80
2022-11-20T18:36:20.225Z,11.90
2022-11-20T18:38:49.510Z,13.25
2022-11-20T18:41:39.637Z,12.18
2022-11-20T18:44:27.128Z,12.77
2022-11-20T18:49:20.587Z,7.28
2022-11-20T18:51:47.197Z,11.07
2022-11-20T18:54:14.438Z,7.05
2022-11-20T18:56:41.267Z,8.65
2022-11-20T18:59:10.123Z,10.05
2022-11-20T19:01:37.357Z,8.30
2022-11-20T19:04:08.992Z,8.60
2022-11-20T19:06:36.947Z,9.50
2022-11-20T19:09:11.576Z,11.25
2022-11-20T19:11:39.453Z,12.15
2022-11-20T19:14:06.805Z,6.40
2022-11-20T19:16:34.641Z,8.00
2022-11-20T19:19:03.588Z,13.43
2022-11-20T19:24:00.559Z,9.73
2022-11-20T19:26:27.381Z,11.63
2022-11-20T19:28:54.414Z,13.27
2022-11-20T19:31:24.613Z,10.52
2022-11-20T19:33:59.654Z,8.50
2022-11-20T19:36:32.267Z,11.85
2022-11-20T19:38:59.630Z,9.48
2022-11-20T19:41:31.699Z,9.98
2022-11-20T19:44:03.641Z,9.73
2022-11-20T19:46:31.387Z,8.35
2022-11-20T19:48:58.107Z,10.77
2022-11-20T19:51:27.327Z,12.82
2022-11-20T19:53:55.743Z,8.40
2022-11-20T19:56:22.463Z,10.57
2022-11-20T19:58:49.099Z,11.85
2022-11-20T20:01:18.678Z,9.20
2022-11-20T20:03:46.683Z,11.95
2022-11-20T20:06:18.866Z,8.63
2022-11-20T20:08:45.565Z,9.02
2022-11-20T20:11:14.014Z,13.65
2022-11-20T20:13:40.958Z,39.47
2022-11-20T20:16:19.042Z,18.30
2022-11-20T20:18:45.924Z,20.13
2022-11-20T20:21:14.458Z,16.95
2022-11-20T20:23:41.621Z,15.07
2022-11-20T20:26:08.935Z,15.02
2022-11-20T20:28:36.336Z,19.98
2022-11-20T20:31:08.132Z,18.35
2022-11-20T20:33:37.119Z,12.32
2022-11-20T20:36:05.340Z,13.57
2022-11-20T20:38:32.038Z,16.02
2022-11-20T20:40:58.825Z,23.08
2022-11-20T20:43:25.572Z,14.98
2022-11-20T20:45:52.547Z,15.70
2022-11-20T20:48:21.453Z,14.57
2022-11-20T20:51:04.215Z,15.00
2022-11-20T20:53:31.365Z,13.32
2022-11-20T20:55:59.760Z,17.05
2022-11-20T20:58:27.282Z,14.10
2022-11-20T21:00:54.484Z,16.80
2022-11-20T21:03:21.483Z,13.18
2022-11-20T21:05:56.261Z,16.90
2022-11-20T21:08:25.462Z,18.02
2022-11-20T21:10:53.881Z,16.98
2022-11-20T21:13:21.658Z,17.33
2022-11-20T21:15:49.803Z,20.08
2022-11-20T21:18:18.236Z,17.85
2022-11-20T21:21:04.238Z,17.48
2022-11-20T21:23:31.150Z,16.63
2022-11-20T21:26:01.360Z,17.60
2022-11-20T21:28:29.090Z,15.93
2022-11-20T21:31:09.791Z,14.98
2022-11-20T21:33:47.243Z,18.02
2022-11-20T21:36:20.558Z,14.98
2022-11-20T21:38:48.132Z,15.25
2022-11-20T21:41:15.905Z,18.02
2022-11-20T21:43:44.199Z,15.68
2022-11-20T21:46:13.363Z,13.60
2022-11-20T21:51:09.234Z,15.95
2022-11-20T21:53:36.625Z,17.70
2022-11-20T21:56:04.655Z,19.15
2022-11-20T21:58:31.855Z,17.45
2022-11-20T22:00:58.496Z,16.08
2022-11-20T22:03:25.689Z,12.02
2022-11-20T22:05:59.260Z,14.00
2022-11-20T22:08:26.419Z,14.68
2022-11-20T22:11:01.939Z,11.05
2022-11-20T22:13:47.535Z,13.63
2022-11-20T22:16:14.915Z,13.18
2022-11-20T22:18:46.478Z,12.35
2022-11-20T22:21:14.368Z,15.25
2022-11-20T22:23:41.076Z,18.42
2022-11-20T22:26:13.831Z,15.95
2022-11-20T22:28:40.823Z,16.60
2022-11-20T22:31:09.970Z,16.88
2022-11-20T22:36:21.161Z,15.73
2022-11-20T22:38:48.085Z,15.77
2022-11-20T22:41:15.858Z,16.70
2022-11-20T22:43:43.688Z,12.23
2022-11-20T22:46:16.215Z,14.90
2022-11-20T22:48:45.399Z,12.13
2022-11-20T22:51:14.287Z,12.57
2022-11-20T22:53:42.049Z,14.75
2022-11-20T22:56:10.598Z,11.32
2022-11-20T22:58:38.331Z,12.15
2022-11-20T23:01:11.170Z,14.48
2022-11-20T23:03:38.657Z,12.63
2022-11-20T23:06:06.132Z,12.45
2022-11-20T23:08:33.571Z,12.60
2022-11-20T23:11:01.418Z,9.73
2022-11-20T23:13:28.831Z,11.02
2022-11-20T23:16:00.325Z,10.32
2022-11-20T23:18:26.995Z,14.95
2022-11-20T23:20:53.713Z,9.65
2022-11-20T23:23:20.371Z,10.75
2022-11-20T23:25:47.014Z,11.25
2022-11-20T23:28:13.685Z,11.60
2022-11-20T23:30:40.342Z,10.43
2022-11-20T23:33:07.024Z,13.13
2022-11-20T23:35:39.336Z,11.88
2022-11-20T23:38:06.021Z,9.65
2022-11-20T23:40:33.355Z,7.65
2022-11-20T23:43:17.443Z,11.25
2022-11-20T23:45:45.805Z,8.90
2022-11-20T23:48:12.808Z,12.20
2022-11-20T23:50:39.666Z,10.07
2022-11-20T23:53:06.696Z,8.90
2022-11-20T23:55:33.630Z,11.95
2022-11-20T23:58:00.406Z,10.77
